createdAt,value
2022-12-11T00:00:50.196Z,1006.1
2022-12-11T00:01:50.359Z,1006.0
2022-12-11T00:02:50.331Z,1006.0
2022-12-11T00:03:50.231Z,1006.0
2022-12-11T00:04:50.241Z,1006.0
2022-12-11T00:05:50.251Z,1005.9
2022-12-11T00:06:50.257Z,1005.9
2022-12-11T00:07:50.403Z,1005.9
2022-12-11T00:08:50.279Z,1005.9
2022-12-11T00:09:50.285Z,1005.9
2022-12-11T00:10:50.325Z,1005.9
2022-12-11T00:11:50.312Z,1005.9
2022-12-11T00:12:50.315Z,1005.8
2022-12-11T00:13:50.322Z,1005.8
2022-12-11T00:14:50.341Z,1005.9
2022-12-11T00:15:50.341Z,1005.9
2022-12-11T00:16:50.575Z,1005.8
2022-12-11T00:17:50.365Z,1005.8
2022-12-11T00:18:50.360Z,1005.8
2022-12-11T00:19:50.371Z,1005.9
2022-12-11T00:20:50.382Z,1005.8
2022-12-11T00:21:50.392Z,1005.9
2022-12-11T00:22:50.406Z,1005.9
2022-12-11T00:23:50.416Z,1005.9
2022-12-11T00:24:50.430Z,1005.8
2022-12-11T00:25:50.434Z,1005.8
2022-12-11T00:26:50.438Z,1005.9
2022-12-11T00:27:50.449Z,1005.8
2022-12-11T00:28:50.454Z,1005.8
2022-12-11T00:29:50.467Z,1005.9
2022-12-11T00:30:50.478Z,1005.9
2022-12-11T00:31:50.611Z,1005.9
2022-12-11T00:32:50.501Z,1005.8
2022-12-11T00:33:50.510Z,1005.8
2022-12-11T00:34:50.521Z,1005.8
2022-12-11T00:35:50.528Z,1005.8
2022-12-11T00:36:50.538Z,1005.8
2022-12-11T00:37:50.549Z,1005.8
2022-12-11T00:38:50.555Z,1005.8
2022-12-11T00:39:50.561Z,1005.8
2022-12-11T00:40:50.566Z,1005.8
2022-12-11T00:41:50.576Z,1005.9
2022-12-11T00:42:50.582Z,1005.9
2022-12-11T00:43:50.597Z,1005.9
2022-12-11T00:44:50.666Z,1005.9
2022-12-11T00:45:50.735Z,1005.8
2022-12-11T00:46:50.617Z,1005.9
2022-12-11T00:47:50.629Z,1005.9
2022-12-11T00:48:50.642Z,1005.9
2022-12-11T00:49:50.654Z,1005.9
2022-12-11T00:50:50.654Z,1005.8
2022-12-11T00:51:50.668Z,1005.8
2022-12-11T00:52:50.681Z,1005.8
2022-12-11T00:53:50.681Z,1005.8
2022-12-11T00:54:50.686Z,1005.8
2022-12-11T00:55:50.691Z,1005.8
2022-12-11T00:56:50.697Z,1005.8
2022-12-11T00:57:50.708Z,1005.8
2022-12-11T00:58:50.714Z,1005.8
2022-12-11T00:59:50.723Z,1005.8
2022-12-11T01:00:50.747Z,1005.8
2022-12-11T01:01:50.745Z,1005.8
2022-12-11T01:02:50.857Z,1005.8
2022-12-11T01:03:50.771Z,1005.8
2022-12-11T01:04:50.780Z,1005.8
2022-12-11T01:05:50.829Z,1005.8
2022-12-11T01:06:50.794Z,1005.8
2022-12-11T01:07:50.895Z,1005.8
2022-12-11T01:08:50.814Z,1005.8
2022-12-11T01:09:50.823Z,1005.8
2022-12-11T01:10:50.981Z,1005.7
2022-12-11T01:11:50.841Z,1005.7
2022-12-11T01:12:50.849Z,1005.8
2022-12-11T01:13:50.860Z,1005.8
2022-12-11T01:14:50.874Z,1005.7
2022-12-11T01:15:50.880Z,1005.8
2022-12-11T01:33:51.431Z,1005.9
2022-12-11T01:34:51.075Z,1005.8
2022-12-11T01:35:51.083Z,1005.8
2022-12-11T01:36:51.104Z,1005.9
2022-12-11T01:37:51.097Z,1005.8
2022-12-11T01:38:51.104Z,1005.9
2022-12-11T01:39:51.117Z,1005.8
2022-12-11T01:40:51.128Z,1005.9
2022-12-11T01:41:51.141Z,1005.9
2022-12-11T01:42:51.151Z,1005.8
2022-12-11T01:43:51.163Z,1005.8
2022-12-11T01:44:51.170Z,1005.9
2022-12-11T01:45:51.242Z,1005.9
2022-12-11T01:46:51.181Z,1005.8
2022-12-11T01:47:51.191Z,1005.9
2022-12-11T01:48:51.203Z,1005.9
2022-12-11T01:49:51.205Z,1005.8
2022-12-11T01:50:51.221Z,1005.9
2022-12-11T01:51:51.224Z,1005.8
2022-12-11T01:52:51.239Z,1005.9
2022-12-11T01:53:51.248Z,1005.9
2022-12-11T01:54:51.258Z,1006.0
2022-12-11T01:55:51.315Z,1005.9
2022-12-11T01:56:51.323Z,1006.0
2022-12-11T01:57:51.328Z,1005.9
2022-12-11T01:58:51.299Z,1005.8
2022-12-11T01:59:51.320Z,1005.9
2022-12-11T02:00:51.478Z,1005.9
2022-12-11T02:01:51.331Z,1005.9
2022-12-11T02:02:51.450Z,1005.9
2022-12-11T02:03:51.355Z,1005.9
2022-12-11T02:04:51.368Z,1005.9
2022-12-11T02:05:51.383Z,1005.9
2022-12-11T02:06:51.390Z,1005.8
2022-12-11T02:07:51.561Z,1005.9
2022-12-11T02:08:51.397Z,1005.9
2022-12-11T02:09:51.403Z,1005.9
2022-12-11T02:10:51.413Z,1005.9
2022-12-11T02:11:51.415Z,1005.8
2022-12-11T02:12:51.423Z,1005.8
2022-12-11T02:13:51.437Z,1005.9
2022-12-11T02:14:51.447Z,1005.9
2022-12-11T02:15:51.451Z,1005.9
2022-12-11T02:16:51.458Z,1005.9
2022-12-11T02:17:51.471Z,1006.0
2022-12-11T02:18:51.479Z,1005.9
2022-12-11T02:19:51.489Z,1005.8
2022-12-11T02:20:51.497Z,1005.8
2022-12-11T02:21:51.514Z,1005.9
2022-12-11T02:22:51.521Z,1005.9
2022-12-11T02:23:51.536Z,1005.9
2022-12-11T02:24:51.537Z,1005.8
2022-12-11T02:25:51.546Z,1005.9
2022-12-11T02:26:51.557Z,1005.9
2022-12-11T02:27:51.560Z,1005.9
2022-12-11T02:28:51.572Z,1005.7
2022-12-11T02:29:51.577Z,1005.8
2022-12-11T02:30:51.588Z,1005.8
2022-12-11T02:31:51.714Z,1005.8
2022-12-11T02:32:51.603Z,1005.8
2022-12-11T02:33:51.613Z,1005.8
2022-12-11T02:34:51.617Z,1005.8
2022-12-11T02:35:51.628Z,1005.8
2022-12-11T02:36:51.632Z,1005.8
2022-12-11T02:37:51.640Z,1005.8
2022-12-11T02:38:51.646Z,1005.7
2022-12-11T02:39:51.654Z,1005.8
2022-12-11T02:40:51.663Z,1005.8
2022-12-11T02:41:51.678Z,1005.8
2022-12-11T02:42:51.690Z,1005.8
2022-12-11T02:43:51.688Z,1005.8
2022-12-11T02:44:51.696Z,1005.7
2022-12-11T02:45:51.821Z,1005.8
2022-12-11T02:46:51.719Z,1005.8
2022-12-11T02:47:51.729Z,1005.7
2022-12-11T02:48:51.736Z,1005.8
2022-12-11T02:49:51.754Z,1005.7
2022-12-11T02:50:51.764Z,1005.7
2022-12-11T02:51:51.770Z,1005.7
2022-12-11T02:52:51.777Z,1005.6
2022-12-11T02:53:51.785Z,1005.6
2022-12-11T02:54:51.799Z,1005.6
2022-12-11T02:55:51.808Z,1005.6
2022-12-11T02:56:51.821Z,1005.7
2022-12-11T02:57:51.827Z,1005.7
2022-12-11T02:58:58.880Z,1005.7
2022-12-11T02:59:51.845Z,1005.7
2022-12-11T03:00:51.862Z,1005.7
2022-12-11T03:01:51.944Z,1005.7
2022-12-11T03:02:52.018Z,1005.7
2022-12-11T03:03:51.885Z,1005.6
2022-12-11T03:04:51.898Z,1005.6
2022-12-11T03:05:51.910Z,1005.8
2022-12-11T03:06:51.924Z,1005.7
2022-12-11T03:07:52.112Z,1005.8
2022-12-11T03:08:51.942Z,1005.7
2022-12-11T03:09:51.959Z,1005.8
2022-12-11T03:10:51.971Z,1005.8
2022-12-11T03:11:52.000Z,1005.8
2022-12-11T03:12:54.157Z,1005.8
2022-12-11T03:13:52.007Z,1005.8
2022-12-11T03:14:52.013Z,1005.8
2022-12-11T03:15:52.015Z,1005.8
2022-12-11T03:16:52.055Z,1005.8
2022-12-11T03:17:52.060Z,1005.7
2022-12-11T03:18:52.096Z,1005.7
2022-12-11T03:19:52.081Z,1005.8
2022-12-11T03:20:52.075Z,1005.8
2022-12-11T03:21:52.092Z,1005.7
2022-12-11T03:22:52.103Z,1005.7
2022-12-11T03:23:53.994Z,1005.8
2022-12-11T03:24:52.141Z,1005.8
2022-12-11T03:25:52.128Z,1005.8
2022-12-11T03:26:57.806Z,1005.7
2022-12-11T03:27:52.135Z,1005.6
2022-12-11T03:28:52.132Z,1005.7
2022-12-11T03:29:52.141Z,1005.7
2022-12-11T03:30:52.330Z,1005.8
2022-12-11T03:31:52.154Z,1005.8
2022-12-11T03:32:52.160Z,1005.8
2022-12-11T03:33:52.166Z,1005.8
2022-12-11T03:34:58.502Z,1005.8
2022-12-11T03:35:52.190Z,1005.7
2022-12-11T03:36:52.195Z,1005.8
2022-12-11T03:37:52.207Z,1005.7
2022-12-11T03:38:52.208Z,1005.8
2022-12-11T03:39:52.225Z,1005.7
2022-12-11T03:40:52.232Z,1005.8
2022-12-11T03:41:52.243Z,1005.7
2022-12-11T03:42:52.254Z,1005.7
2022-12-11T03:43:52.263Z,1005.6
2022-12-11T03:44:52.273Z,1005.6
2022-12-11T03:45:52.476Z,1005.7
2022-12-11T03:46:52.292Z,1005.8
2022-12-11T03:47:52.309Z,1005.7
2022-12-11T03:48:52.312Z,1005.6
2022-12-11T03:49:52.327Z,1005.7
2022-12-11T03:50:52.331Z,1005.7
2022-12-11T03:51:52.340Z,1005.8
2022-12-11T03:52:52.349Z,1005.7
2022-12-11T03:53:52.355Z,1005.7
2022-12-11T03:54:52.367Z,1005.6
2022-12-11T03:55:52.377Z,1005.7
2022-12-11T03:56:52.386Z,1005.5
2022-12-11T03:57:52.397Z,1005.6
2022-12-11T03:58:52.404Z,1005.7
2022-12-11T03:59:52.433Z,1005.7
2022-12-11T04:00:52.431Z,1005.7
2022-12-11T04:01:52.505Z,1005.8
2022-12-11T04:02:52.456Z,1005.7
2022-12-11T04:03:52.527Z,1005.7
2022-12-11T04:04:52.480Z,1005.7
2022-12-11T04:05:52.494Z,1005.6
2022-12-11T04:06:52.504Z,1005.5
2022-12-11T04:07:52.599Z,1005.6
2022-12-11T04:08:52.525Z,1005.6
2022-12-11T04:09:52.534Z,1005.6
2022-12-11T04:10:52.535Z,1005.7
2022-12-11T04:11:52.549Z,1005.7
2022-12-11T04:12:52.681Z,1005.7
2022-12-11T04:13:52.579Z,1005.7
2022-12-11T04:14:52.576Z,1005.6
2022-12-11T04:15:52.669Z,1005.6
2022-12-11T04:16:52.603Z,1005.5
2022-12-11T04:17:52.606Z,1005.5
2022-12-11T04:18:52.624Z,1005.6
2022-12-11T04:19:52.630Z,1005.5
2022-12-11T04:20:52.632Z,1005.6
2022-12-11T04:21:52.643Z,1005.6
2022-12-11T04:22:52.654Z,1005.6
2022-12-11T04:23:52.664Z,1005.6
2022-12-11T04:24:52.668Z,1005.6
2022-12-11T04:25:52.683Z,1005.6
2022-12-11T04:26:52.685Z,1005.5
2022-12-11T04:27:52.703Z,1005.5
2022-12-11T04:28:52.708Z,1005.5
2022-12-11T04:29:52.724Z,1005.5
2022-12-11T04:30:52.891Z,1005.5
2022-12-11T04:31:52.740Z,1005.5
2022-12-11T04:32:52.754Z,1005.5
2022-12-11T04:33:52.762Z,1005.5
2022-12-11T04:34:52.766Z,1005.5
2022-12-11T04:35:52.802Z,1005.5
2022-12-11T04:36:52.791Z,1005.5
2022-12-11T04:37:52.799Z,1005.5
2022-12-11T04:38:52.814Z,1005.5
2022-12-11T04:39:52.824Z,1005.5
2022-12-11T04:40:52.832Z,1005.5
2022-12-11T04:41:52.841Z,1005.5
2022-12-11T04:42:52.850Z,1005.4
2022-12-11T04:43:52.861Z,1005.5
2022-12-11T04:44:52.871Z,1005.5
2022-12-11T04:45:52.880Z,1005.5
2022-12-11T04:46:52.969Z,1005.4
2022-12-11T04:47:52.901Z,1005.4
2022-12-11T04:48:58.137Z,1005.4
2022-12-11T04:49:52.922Z,1005.5
2022-12-11T04:50:52.945Z,1005.5
2022-12-11T04:51:52.940Z,1005.5
2022-12-11T04:52:52.953Z,1005.4
2022-12-11T04:53:52.966Z,1005.4
2022-12-11T04:54:52.977Z,1005.5
2022-12-11T04:55:52.990Z,1005.5
2022-12-11T04:56:53.001Z,1005.5
2022-12-11T04:57:53.015Z,1005.5
2022-12-11T04:58:53.021Z,1005.5
2022-12-11T04:59:53.031Z,1005.5
2022-12-11T05:00:53.062Z,1005.5
2022-12-11T05:01:53.201Z,1005.5
2022-12-11T05:02:53.187Z,1005.5
2022-12-11T05:03:53.085Z,1005.5
2022-12-11T05:04:53.090Z,1005.5
2022-12-11T05:05:53.096Z,1005.4
2022-12-11T05:06:53.117Z,1005.5
2022-12-11T05:07:53.232Z,1005.5
2022-12-11T05:08:53.135Z,1005.5
2022-12-11T05:09:53.133Z,1005.5
2022-12-11T05:10:53.148Z,1005.5
2022-12-11T05:11:53.153Z,1005.4
2022-12-11T05:12:53.168Z,1005.5
2022-12-11T05:13:53.182Z,1005.5
2022-12-11T05:14:53.221Z,1005.4
2022-12-11T05:15:53.445Z,1005.5
2022-12-11T05:16:53.246Z,1005.5
2022-12-11T05:17:53.222Z,1005.4
2022-12-11T05:18:53.231Z,1005.5
2022-12-11T05:19:53.238Z,1005.4
2022-12-11T05:20:53.248Z,1005.5
2022-12-11T05:21:53.247Z,1005.5
2022-12-11T05:22:53.254Z,1005.5
2022-12-11T05:23:53.261Z,1005.5
2022-12-11T05:24:53.276Z,1005.5
2022-12-11T05:25:53.282Z,1005.5
2022-12-11T05:26:53.291Z,1005.5
2022-12-11T05:27:53.288Z,1005.5
2022-12-11T05:28:53.334Z,1005.5
2022-12-11T05:29:59.639Z,1005.5
2022-12-11T05:30:53.373Z,1005.5
2022-12-11T05:31:53.329Z,1005.5
2022-12-11T05:32:53.345Z,1005.5
2022-12-11T05:33:53.358Z,1005.4
2022-12-11T05:34:53.373Z,1005.5
2022-12-11T05:35:53.380Z,1005.5
2022-12-11T05:36:53.386Z,1005.5
2022-12-11T05:37:53.391Z,1005.5
2022-12-11T05:38:53.412Z,1005.5
2022-12-11T05:39:53.425Z,1005.5
2022-12-11T05:40:53.421Z,1005.5
2022-12-11T05:41:53.430Z,1005.4
2022-12-11T05:42:53.432Z,1005.5
2022-12-11T05:43:53.450Z,1005.5
2022-12-11T05:44:53.466Z,1005.5
2022-12-11T05:45:53.473Z,1005.5
2022-12-11T05:46:53.616Z,1005.5
2022-12-11T05:47:53.486Z,1005.5
2022-12-11T05:48:53.494Z,1005.4
2022-12-11T05:49:53.503Z,1005.4
2022-12-11T05:50:53.517Z,1005.5
2022-12-11T05:51:53.516Z,1005.5
2022-12-11T05:52:53.534Z,1005.5
2022-12-11T05:53:53.567Z,1005.5
2022-12-11T05:54:53.560Z,1005.4
2022-12-11T05:55:53.561Z,1005.4
2022-12-11T05:56:53.567Z,1005.4
2022-12-11T05:57:53.590Z,1005.4
2022-12-11T05:58:53.598Z,1005.3
2022-12-11T05:59:53.615Z,1005.3
2022-12-11T06:00:53.611Z,1005.3
2022-12-11T06:01:53.851Z,1005.2
2022-12-11T06:02:53.871Z,1005.3
2022-12-11T06:03:53.650Z,1005.3
2022-12-11T06:04:53.651Z,1005.3
2022-12-11T06:05:53.661Z,1005.4
2022-12-11T06:06:53.675Z,1005.4
2022-12-11T06:07:53.838Z,1005.4
2022-12-11T06:08:53.697Z,1005.3
2022-12-11T06:09:53.709Z,1005.3
2022-12-11T06:10:53.712Z,1005.3
2022-12-11T06:11:53.726Z,1005.3
2022-12-11T06:12:53.732Z,1005.4
2022-12-11T06:13:53.743Z,1005.4
2022-12-11T06:14:53.742Z,1005.4
2022-12-11T06:15:53.757Z,1005.5
2022-12-11T06:16:53.803Z,1005.5
2022-12-11T06:17:53.777Z,1005.4
2022-12-11T06:18:58.628Z,1005.5
2022-12-11T06:19:53.795Z,1005.5
2022-12-11T06:20:53.811Z,1005.5
2022-12-11T06:21:53.825Z,1005.5
2022-12-11T06:22:53.829Z,1005.5
2022-12-11T06:23:53.835Z,1005.6
2022-12-11T06:24:53.855Z,1005.6
2022-12-11T06:25:53.985Z,1005.6
2022-12-11T06:26:53.877Z,1005.6
2022-12-11T06:27:53.885Z,1005.6
2022-12-11T06:28:53.900Z,1005.6
2022-12-11T06:29:53.924Z,1005.5
2022-12-11T06:30:53.931Z,1005.6
2022-12-11T06:31:54.090Z,1005.5
2022-12-11T06:32:53.941Z,1005.5
2022-12-11T06:33:53.959Z,1005.6
2022-12-11T06:34:53.970Z,1005.6
2022-12-11T06:35:53.987Z,1005.6
2022-12-11T06:36:53.989Z,1005.6
2022-12-11T06:37:53.997Z,1005.5
2022-12-11T06:38:54.003Z,1005.7
2022-12-11T06:39:54.017Z,1005.7
2022-12-11T06:40:54.035Z,1005.5
2022-12-11T06:41:54.049Z,1005.6
2022-12-11T06:42:54.061Z,1005.6
2022-12-11T06:43:54.081Z,1005.6
2022-12-11T06:44:54.088Z,1005.7
2022-12-11T06:46:02.154Z,1005.6
2022-12-11T06:46:54.099Z,1005.6
2022-12-11T06:47:54.109Z,1005.6
2022-12-11T06:48:54.119Z,1005.5
2022-12-11T06:49:54.132Z,1005.6
2022-12-11T06:50:54.144Z,1005.5
2022-12-11T06:51:54.149Z,1005.5
2022-12-11T06:52:54.150Z,1005.5
2022-12-11T06:53:54.163Z,1005.5
2022-12-11T06:54:54.170Z,1005.5
2022-12-11T06:55:54.177Z,1005.5
2022-12-11T06:56:54.183Z,1005.5
2022-12-11T06:57:54.188Z,1005.5
2022-12-11T06:58:54.197Z,1005.5
2022-12-11T06:59:54.199Z,1005.5
2022-12-11T07:00:54.320Z,1005.5
2022-12-11T07:01:54.421Z,1005.5
2022-12-11T07:02:54.229Z,1005.5
2022-12-11T07:03:54.233Z,1005.5
2022-12-11T07:04:55.559Z,1005.5
2022-12-11T07:05:54.259Z,1005.5
2022-12-11T07:06:54.270Z,1005.5
2022-12-11T07:07:54.343Z,1005.5
2022-12-11T07:08:54.296Z,1005.6
2022-12-11T07:09:54.307Z,1005.6
2022-12-11T07:10:54.318Z,1005.6
2022-12-11T07:11:54.323Z,1005.6
2022-12-11T07:12:54.338Z,1005.7
2022-12-11T07:13:54.343Z,1005.6
2022-12-11T07:14:54.354Z,1005.7
2022-12-11T07:15:54.365Z,1005.7
2022-12-11T07:16:54.434Z,1005.7
2022-12-11T07:17:54.390Z,1005.7
2022-12-11T07:18:54.398Z,1005.8
2022-12-11T07:19:54.412Z,1005.8
2022-12-11T07:20:54.415Z,1005.8
2022-12-11T07:21:54.424Z,1005.8
2022-12-11T07:22:54.430Z,1005.9
2022-12-11T07:23:54.433Z,1005.8
2022-12-11T07:24:54.450Z,1005.9
2022-12-11T07:25:54.467Z,1006.0
2022-12-11T07:26:54.474Z,1005.9
2022-12-11T07:27:54.487Z,1005.9
2022-12-11T07:28:54.491Z,1005.9
2022-12-11T07:29:54.495Z,1005.9
2022-12-11T07:30:54.510Z,1005.9
2022-12-11T07:31:54.820Z,1005.9
2022-12-11T07:32:54.650Z,1005.9
2022-12-11T07:33:54.545Z,1006.0
2022-12-11T07:34:54.553Z,1005.9
2022-12-11T07:35:54.565Z,1006.0
2022-12-11T07:36:54.573Z,1006.0
2022-12-11T07:37:54.585Z,1006.0
2022-12-11T07:38:54.600Z,1006.0
2022-12-11T07:39:54.612Z,1006.0
2022-12-11T07:40:54.635Z,1006.0
2022-12-11T07:41:54.659Z,1006.0
2022-12-11T07:42:54.660Z,1006.1
2022-12-11T07:43:54.671Z,1006.1
2022-12-11T07:44:54.688Z,1006.1
2022-12-11T07:45:54.786Z,1006.0
2022-12-11T07:46:54.713Z,1006.0
2022-12-11T07:47:54.719Z,1006.0
2022-12-11T07:48:54.723Z,1006.0
2022-12-11T07:49:54.732Z,1006.1
2022-12-11T07:50:54.755Z,1006.1
2022-12-11T07:51:54.752Z,1006.1
2022-12-11T07:52:54.756Z,1006.1
2022-12-11T07:53:54.763Z,1006.0
2022-12-11T07:54:54.783Z,1006.0
2022-12-11T07:55:54.802Z,1006.0
2022-12-11T07:56:54.809Z,1006.0
2022-12-11T07:57:54.821Z,1006.0
2022-12-11T07:58:54.823Z,1006.0
2022-12-11T07:59:54.834Z,1005.9
2022-12-11T08:00:54.922Z,1005.8
2022-12-11T08:01:54.999Z,1005.9
2022-12-11T08:02:54.968Z,1006.0
2022-12-11T08:03:54.868Z,1005.9
2022-12-11T08:04:54.884Z,1005.9
2022-12-11T08:05:54.899Z,1005.9
2022-12-11T08:06:54.914Z,1005.9
2022-12-11T08:07:55.054Z,1005.9
2022-12-11T08:08:54.934Z,1006.0
2022-12-11T08:09:54.940Z,1005.9
2022-12-11T08:10:54.960Z,1006.0
2022-12-11T08:11:54.972Z,1005.9
2022-12-11T08:12:54.970Z,1005.9
2022-12-11T08:13:54.988Z,1005.9
2022-12-11T08:14:54.994Z,1006.0
2022-12-11T08:15:55.053Z,1005.9
2022-12-11T08:16:55.234Z,1005.9
2022-12-11T08:17:55.027Z,1005.9
2022-12-11T08:18:55.046Z,1005.9
2022-12-11T08:19:55.053Z,1005.9
2022-12-11T08:20:55.070Z,1005.9
2022-12-11T08:21:55.080Z,1005.9
2022-12-11T08:22:59.452Z,1005.9
2022-12-11T08:23:55.097Z,1005.9
2022-12-11T08:24:55.112Z,1005.9
2022-12-11T08:25:55.116Z,1005.9
2022-12-11T08:26:55.137Z,1005.9
2022-12-11T08:27:55.159Z,1005.9
2022-12-11T08:28:55.180Z,1005.9
2022-12-11T08:29:55.187Z,1005.9
2022-12-11T08:30:55.266Z,1005.9
2022-12-11T08:31:55.199Z,1005.9
2022-12-11T08:32:55.216Z,1005.9
2022-12-11T08:33:55.229Z,1005.8
2022-12-11T08:34:55.239Z,1005.9
2022-12-11T08:35:55.242Z,1006.0
2022-12-11T08:36:55.245Z,1005.9
2022-12-11T08:37:55.260Z,1005.9
2022-12-11T08:38:55.266Z,1005.9
2022-12-11T08:39:55.273Z,1005.8
2022-12-11T08:40:55.287Z,1005.9
2022-12-11T08:41:55.303Z,1005.8
2022-12-11T08:42:55.311Z,1005.9
2022-12-11T08:43:55.579Z,1005.9
2022-12-11T08:44:55.337Z,1005.9
2022-12-11T08:45:55.417Z,1005.8
2022-12-11T08:46:55.362Z,1005.9
2022-12-11T08:47:55.375Z,1005.8
2022-12-11T08:48:55.392Z,1005.8
2022-12-11T08:49:55.393Z,1005.9
2022-12-11T08:50:55.402Z,1005.8
2022-12-11T08:51:55.425Z,1005.8
2022-12-11T08:52:55.433Z,1005.8
2022-12-11T08:53:55.445Z,1005.8
2022-12-11T08:54:55.461Z,1005.8
2022-12-11T08:55:55.466Z,1005.8
2022-12-11T08:56:58.479Z,1005.8
2022-12-11T08:57:56.499Z,1005.7
2022-12-11T08:58:55.496Z,1005.8
2022-12-11T08:59:55.517Z,1005.8
2022-12-11T09:00:55.650Z,1005.7
2022-12-11T09:01:55.533Z,1005.7
2022-12-11T09:02:55.675Z,1005.7
2022-12-11T09:03:55.571Z,1005.7
2022-12-11T09:04:55.567Z,1005.7
2022-12-11T09:05:55.589Z,1005.7
2022-12-11T09:06:55.595Z,1005.6
2022-12-11T09:07:55.644Z,1005.6
2022-12-11T09:08:55.614Z,1005.6
2022-12-11T09:09:55.635Z,1005.7
2022-12-11T09:10:55.631Z,1005.7
2022-12-11T09:11:55.643Z,1005.7
2022-12-11T09:12:55.650Z,1005.7
2022-12-11T09:13:55.674Z,1005.7
2022-12-11T09:14:55.672Z,1005.7
2022-12-11T09:15:55.754Z,1005.7
2022-12-11T09:16:55.692Z,1005.6
2022-12-11T09:17:55.708Z,1005.7
2022-12-11T09:18:55.716Z,1005.7
2022-12-11T09:19:55.725Z,1005.7
2022-12-11T09:20:55.737Z,1005.6
2022-12-11T09:21:55.752Z,1005.7
2022-12-11T09:22:55.758Z,1005.7
2022-12-11T09:23:55.774Z,1005.6
2022-12-11T09:24:55.858Z,1005.7
2022-12-11T09:25:55.792Z,1005.6
2022-12-11T09:26:55.834Z,1005.7
2022-12-11T09:27:55.823Z,1005.6
2022-12-11T09:28:55.835Z,1005.7
2022-12-11T09:29:55.856Z,1005.7
2022-12-11T09:30:55.948Z,1005.7
2022-12-11T09:31:55.866Z,1005.6
2022-12-11T09:32:55.873Z,1005.6
2022-12-11T09:33:55.899Z,1005.7
2022-12-11T09:34:55.905Z,1005.7
2022-12-11T09:35:55.903Z,1005.6
2022-12-11T09:36:55.912Z,1005.6
2022-12-11T09:37:55.912Z,1005.6
2022-12-11T09:38:55.921Z,1005.5
2022-12-11T09:39:55.934Z,1005.6
2022-12-11T09:40:55.940Z,1005.5
2022-12-11T09:41:55.963Z,1005.5
2022-12-11T09:42:55.966Z,1005.5
2022-12-11T09:43:55.985Z,1005.5
2022-12-11T09:44:55.990Z,1005.5
2022-12-11T09:45:56.106Z,1005.5
2022-12-11T09:46:56.081Z,1005.4
2022-12-11T09:47:56.015Z,1005.5
2022-12-11T09:48:56.041Z,1005.5
2022-12-11T09:49:56.033Z,1005.5
2022-12-11T09:50:56.037Z,1005.5
2022-12-11T09:51:56.056Z,1005.5
2022-12-11T09:52:56.064Z,1005.5
2022-12-11T09:53:56.073Z,1005.5
2022-12-11T09:54:56.090Z,1005.6
2022-12-11T09:55:56.106Z,1005.5
2022-12-11T09:56:56.122Z,1005.5
2022-12-11T09:57:56.138Z,1005.5
2022-12-11T09:58:56.137Z,1005.5
2022-12-11T10:00:05.397Z,1005.6
2022-12-11T10:00:56.164Z,1005.5
2022-12-11T10:01:56.180Z,1005.6
2022-12-11T10:02:56.358Z,1005.6
2022-12-11T10:03:56.198Z,1005.6
2022-12-11T10:04:56.205Z,1005.6
2022-12-11T10:06:04.714Z,1005.6
2022-12-11T10:06:56.232Z,1005.6
2022-12-11T10:07:56.304Z,1005.6
2022-12-11T10:08:56.276Z,1005.6
2022-12-11T10:09:56.273Z,1005.6
2022-12-11T10:10:56.294Z,1005.6
2022-12-11T10:11:57.222Z,1005.6
2022-12-11T10:12:56.297Z,1005.6
2022-12-11T10:13:56.303Z,1005.5
2022-12-11T10:14:56.386Z,1005.5
2022-12-11T10:15:56.466Z,1005.5
2022-12-11T10:16:56.335Z,1005.5
2022-12-11T10:18:05.040Z,1005.5
2022-12-11T10:18:56.352Z,1005.5
2022-12-11T10:19:56.371Z,1005.5
2022-12-11T10:20:56.385Z,1005.5
2022-12-11T10:21:56.402Z,1005.5
2022-12-11T10:22:56.401Z,1005.5
2022-12-11T10:23:56.422Z,1005.3
2022-12-11T10:25:11.450Z,1005.4
2022-12-11T10:25:56.556Z,1005.4
2022-12-11T10:26:56.436Z,1005.3
2022-12-11T10:27:56.445Z,1005.3
2022-12-11T10:28:56.454Z,1005.3
2022-12-11T10:29:56.468Z,1005.2
2022-12-11T10:30:56.554Z,1005.3
2022-12-11T10:31:56.490Z,1005.2
2022-12-11T10:32:56.504Z,1005.2
2022-12-11T10:33:56.505Z,1005.2
2022-12-11T10:34:56.515Z,1005.3
2022-12-11T10:35:56.739Z,1005.2
2022-12-11T10:37:00.757Z,1005.2
2022-12-11T10:37:56.558Z,1005.2
2022-12-11T10:38:56.566Z,1005.2
2022-12-11T10:39:56.582Z,1005.3
2022-12-11T10:40:56.592Z,1005.2
2022-12-11T10:41:56.588Z,1005.2
2022-12-11T10:42:56.597Z,1005.1
2022-12-11T10:43:56.615Z,1005.1
2022-12-11T10:44:56.628Z,1005.1
2022-12-11T10:45:57.007Z,1005.1
2022-12-11T10:46:56.654Z,1005.1
2022-12-11T10:47:56.667Z,1005.1
2022-12-11T10:48:56.674Z,1005.1
2022-12-11T10:49:56.688Z,1005.1
2022-12-11T10:50:56.696Z,1005.1
2022-12-11T10:51:56.711Z,1005.1
2022-12-11T10:52:56.711Z,1005.0
2022-12-11T10:53:56.730Z,1005.0
2022-12-11T10:54:56.735Z,1005.0
2022-12-11T10:55:56.744Z,1005.1
2022-12-11T10:56:56.755Z,1005.0
2022-12-11T10:57:56.765Z,1005.1
2022-12-11T10:58:56.768Z,1005.0
2022-12-11T10:59:56.780Z,1005.0
2022-12-11T11:00:56.792Z,1005.0
2022-12-11T11:01:56.912Z,1005.0
2022-12-11T11:02:56.936Z,1005.0
2022-12-11T11:03:56.837Z,1005.1
2022-12-11T11:04:56.849Z,1005.0
2022-12-11T11:05:56.852Z,1005.1
2022-12-11T11:06:56.867Z,1005.0
2022-12-11T11:07:57.016Z,1005.1
2022-12-11T11:08:56.900Z,1005.1
2022-12-11T11:09:56.910Z,1005.1
2022-12-11T11:10:56.919Z,1005.1
2022-12-11T11:11:56.936Z,1005.1
2022-12-11T11:12:56.947Z,1005.1
2022-12-11T11:13:56.965Z,1005.0
2022-12-11T11:14:56.977Z,1005.1
2022-12-11T11:15:57.234Z,1005.1
2022-12-11T11:16:56.993Z,1005.0
2022-12-11T11:17:57.008Z,1005.0
2022-12-11T11:18:57.016Z,1005.0
2022-12-11T11:19:57.034Z,1005.0
2022-12-11T11:20:57.047Z,1005.0
2022-12-11T11:21:57.054Z,1005.0
2022-12-11T11:22:57.079Z,1005.0
2022-12-11T11:23:57.089Z,1005.0
2022-12-11T11:24:57.097Z,1005.0
2022-12-11T11:25:57.111Z,1005.0
2022-12-11T11:27:14.339Z,1004.9
2022-12-11T11:27:57.134Z,1005.0
2022-12-11T11:28:57.151Z,1005.0
2022-12-11T11:29:57.156Z,1005.0
2022-12-11T11:30:57.271Z,1004.9
2022-12-11T11:31:57.186Z,1004.9
2022-12-11T11:32:57.199Z,1005.0
2022-12-11T11:33:57.212Z,1004.9
2022-12-11T11:34:57.272Z,1004.9
2022-12-11T11:35:57.219Z,1004.9
2022-12-11T11:36:57.242Z,1004.7
2022-12-11T11:37:57.262Z,1004.8
2022-12-11T11:38:57.274Z,1004.8
2022-12-11T11:39:57.299Z,1004.8
2022-12-11T11:41:06.687Z,1004.8
2022-12-11T11:41:57.330Z,1004.7
2022-12-11T11:42:57.333Z,1004.8
2022-12-11T11:43:57.355Z,1004.8
2022-12-11T11:44:57.365Z,1004.7
2022-12-11T11:45:57.379Z,1004.8
2022-12-11T11:46:57.483Z,1004.7
2022-12-11T11:47:57.399Z,1004.6
2022-12-11T11:48:57.404Z,1004.7
2022-12-11T11:49:57.424Z,1004.6
2022-12-11T11:50:57.434Z,1004.7
2022-12-11T11:51:57.446Z,1004.7
2022-12-11T11:52:57.459Z,1004.7
2022-12-11T11:53:57.475Z,1004.7
2022-12-11T11:54:57.489Z,1004.6
2022-12-11T11:55:57.486Z,1004.7
2022-12-11T11:56:57.498Z,1004.7
2022-12-11T11:57:57.515Z,1004.7
2022-12-11T11:58:57.525Z,1004.7
2022-12-11T11:59:57.538Z,1004.6
2022-12-11T12:00:57.542Z,1004.7
2022-12-11T12:01:57.557Z,1004.7
2022-12-11T12:02:57.671Z,1004.7
2022-12-11T12:03:57.589Z,1004.6
2022-12-11T12:04:57.598Z,1004.7
2022-12-11T12:05:57.611Z,1004.6
2022-12-11T12:06:57.627Z,1004.6
2022-12-11T12:07:57.691Z,1004.6
2022-12-11T12:08:57.647Z,1004.7
2022-12-11T12:09:57.733Z,1004.7
2022-12-11T12:10:57.667Z,1004.6
2022-12-11T12:11:57.680Z,1004.6
2022-12-11T12:12:57.701Z,1004.6
2022-12-11T12:13:57.726Z,1004.6
2022-12-11T12:14:57.742Z,1004.6
2022-12-11T12:15:57.930Z,1004.5
2022-12-11T12:16:57.965Z,1004.5
2022-12-11T12:17:57.792Z,1004.6
2022-12-11T12:18:57.807Z,1004.6
2022-12-11T12:19:57.832Z,1004.6
2022-12-11T12:20:57.853Z,1004.5
2022-12-11T12:21:57.854Z,1004.7
2022-12-11T12:22:57.858Z,1004.6
2022-12-11T12:23:57.889Z,1004.6
2022-12-11T12:24:57.884Z,1004.6
2022-12-11T12:25:57.902Z,1004.6
2022-12-11T12:26:57.920Z,1004.6
2022-12-11T12:27:57.936Z,1004.6
2022-12-11T12:28:57.943Z,1004.6
2022-12-11T12:29:57.956Z,1004.6
2022-12-11T12:30:57.958Z,1004.6
2022-12-11T12:31:58.135Z,1004.6
2022-12-11T12:32:57.979Z,1004.6
2022-12-11T12:33:57.990Z,1004.6
2022-12-11T12:34:58.004Z,1004.7
2022-12-11T12:36:06.521Z,1004.6
2022-12-11T12:36:58.038Z,1004.6
2022-12-11T12:37:58.051Z,1004.7
2022-12-11T12:38:58.059Z,1004.7
2022-12-11T12:39:58.065Z,1004.6
2022-12-11T12:40:58.086Z,1004.7
2022-12-11T12:42:07.403Z,1004.7
2022-12-11T12:42:58.096Z,1004.8
2022-12-11T12:43:58.180Z,1004.7
2022-12-11T12:44:58.126Z,1004.8
2022-12-11T12:45:58.189Z,1004.8